sensor_id;sensor_type;location;lat;lon;timestamp;P1;durP1;ratioP1;P2;durP2;ratioP2
36205;SDS011;22242;48.796;9.930;2023-04-24T00:00:20;0.80;;;0.30;;
36205;SDS011;22242;48.796;9.930;2023-04-24T00:02:48;1.67;;;0.43;;
36205;SDS011;22242;48.796;9.930;2023-04-24T00:05:16;1.38;;;0.40;;
36205;SDS011;22242;48.796;9.930;2023-04-24T00:07:44;0.80;;;0.32;;
36205;SDS011;22242;48.796;9.930;2023-04-24T00:10:11;0.93;;;0.40;;
36205;SDS011;22242;48.796;9.930;2023-04-24T00:12:38;1.73;;;0.50;;
36205;SDS011;22242;48.796;9.930;2023-04-24T00:15:08;2.72;;;0.60;;
36205;SDS011;22242;48.796;9.930;2023-04-24T00:17:35;2.05;;;0.40;;
36205;SDS011;22242;48.796;9.930;2023-04-24T00:20:03;1.50;;;0.50;;
36205;SDS011;22242;48.796;9.930;2023-04-24T00:22:32;0.63;;;0.30;;
36205;SDS011;22242;48.796;9.930;2023-04-24T00:24:59;0.50;;;0.40;;
36205;SDS011;22242;48.796;9.930;2023-04-24T00:27:26;1.15;;;0.90;;
36205;SDS011;22242;48.796;9.930;2023-04-24T00:29:53;1.73;;;0.77;;
36205;SDS011;22242;48.796;9.930;2023-04-24T00:32:22;1.67;;;0.90;;
36205;SDS011;22242;48.796;9.930;2023-04-24T00:34:49;1.55;;;1.08;;
36205;SDS011;22242;48.796;9.930;2023-04-24T00:37:16;0.43;;;0.40;;
36205;SDS011;22242;48.796;9.930;2023-04-24T00:39:43;0.70;;;0.50;;
36205;SDS011;22242;48.796;9.930;2023-04-24T00:42:10;1.27;;;0.40;;
36205;SDS011;22242;48.796;9.930;2023-04-24T00:44:38;1.85;;;0.68;;
36205;SDS011;22242;48.796;9.930;2023-04-24T00:47:05;0.47;;;0.47;;
36205;SDS011;22242;48.796;9.930;2023-04-24T00:49:34;1.77;;;0.47;;
36205;SDS011;22242;48.796;9.930;2023-04-24T00:52:01;1.13;;;0.40;;
36205;SDS011;22242;48.796;9.930;2023-04-24T00:54:32;1.50;;;0.55;;
36205;SDS011;22242;48.796;9.930;2023-04-24T00:57:00;0.70;;;0.40;;
36205;SDS011;22242;48.796;9.930;2023-04-24T00:59:28;1.95;;;0.60;;
36205;SDS011;22242;48.796;9.930;2023-04-24T01:01:55;1.60;;;0.57;;
36205;SDS011;22242;48.796;9.930;2023-04-24T01:04:22;3.80;;;0.75;;
36205;SDS011;22242;48.796;9.930;2023-04-24T01:06:52;2.13;;;0.98;;
36205;SDS011;22242;48.796;9.930;2023-04-24T01:09:21;2.17;;;0.60;;
36205;SDS011;22242;48.796;9.930;2023-04-24T01:11:50;1.17;;;0.57;;
36205;SDS011;22242;48.796;9.930;2023-04-24T01:14:17;1.23;;;0.60;;
36205;SDS011;22242;48.796;9.930;2023-04-24T01:16:44;0.82;;;0.68;;
36205;SDS011;22242;48.796;9.930;2023-04-24T01:19:11;0.85;;;0.40;;
36205;SDS011;22242;48.796;9.930;2023-04-24T01:21:41;0.77;;;0.70;;
36205;SDS011;22242;48.796;9.930;2023-04-24T01:24:11;2.53;;;0.80;;
36205;SDS011;22242;48.796;9.930;2023-04-24T01:26:39;1.38;;;0.70;;
36205;SDS011;22242;48.796;9.930;2023-04-24T01:29:06;1.67;;;0.70;;
36205;SDS011;22242;48.796;9.930;2023-04-24T01:31:34;0.60;;;0.50;;
36205;SDS011;22242;48.796;9.930;2023-04-24T01:34:01;1.77;;;0.60;;
36205;SDS011;22242;48.796;9.930;2023-04-24T01:36:28;1.20;;;0.60;;
36205;SDS011;22242;48.796;9.930;2023-04-24T01:38:56;0.68;;;0.52;;
36205;SDS011;22242;48.796;9.930;2023-04-24T01:41:26;0.30;;;0.28;;
36205;SDS011;22242;48.796;9.930;2023-04-24T01:43:53;2.30;;;0.40;;
36205;SDS011;22242;48.796;9.930;2023-04-24T01:46:21;3.97;;;0.50;;
36205;SDS011;22242;48.796;9.930;2023-04-24T01:48:49;1.60;;;0.40;;
36205;SDS011;22242;48.796;9.930;2023-04-24T01:51:18;0.65;;;0.30;;
36205;SDS011;22242;48.796;9.930;2023-04-24T01:53:46;2.70;;;0.40;;
36205;SDS011;22242;48.796;9.930;2023-04-24T01:56:13;1.65;;;0.50;;
36205;SDS011;22242;48.796;9.930;2023-04-24T01:58:42;1.45;;;0.85;;
36205;SDS011;22242;48.796;9.930;2023-04-24T02:01:14;1.63;;;0.57;;
36205;SDS011;22242;48.796;9.930;2023-04-24T02:03:42;1.30;;;0.35;;
36205;SDS011;22242;48.796;9.930;2023-04-24T02:06:08;3.00;;;0.30;;
36205;SDS011;22242;48.796;9.930;2023-04-24T02:08:35;0.95;;;0.32;;
36205;SDS011;22242;48.796;9.930;2023-04-24T02:11:03;3.53;;;0.50;;
36205;SDS011;22242;48.796;9.930;2023-04-24T02:13:31;1.63;;;0.30;;
36205;SDS011;22242;48.796;9.930;2023-04-24T02:16:01;3.10;;;0.38;;
36205;SDS011;22242;48.796;9.930;2023-04-24T02:18:29;0.70;;;0.40;;
36205;SDS011;22242;48.796;9.930;2023-04-24T02:20:56;1.83;;;0.45;;
36205;SDS011;22242;48.796;9.930;2023-04-24T02:23:23;0.93;;;0.63;;
36205;SDS011;22242;48.796;9.930;2023-04-24T02:25:50;2.25;;;0.60;;
36205;SDS011;22242;48.796;9.930;2023-04-24T02:28:18;1.95;;;0.90;;
36205;SDS011;22242;48.796;9.930;2023-04-24T02:30:45;0.50;;;0.50;;
36205;SDS011;22242;48.796;9.930;2023-04-24T02:33:14;2.55;;;0.85;;
36205;SDS011;22242;48.796;9.930;2023-04-24T02:35:41;3.08;;;0.70;;
36205;SDS011;22242;48.796;9.930;2023-04-24T02:38:08;0.90;;;0.55;;
36205;SDS011;22242;48.796;9.930;2023-04-24T02:40:35;0.93;;;0.50;;
36205;SDS011;22242;48.796;9.930;2023-04-24T02:43:02;0.65;;;0.47;;
36205;SDS011;22242;48.796;9.930;2023-04-24T02:45:29;1.02;;;0.50;;
36205;SDS011;22242;48.796;9.930;2023-04-24T02:47:56;0.57;;;0.40;;
36205;SDS011;22242;48.796;9.930;2023-04-24T02:50:25;1.90;;;0.50;;
36205;SDS011;22242;48.796;9.930;2023-04-24T02:52:52;0.95;;;0.30;;
36205;SDS011;22242;48.796;9.930;2023-04-24T02:55:19;2.25;;;0.38;;
36205;SDS011;22242;48.796;9.930;2023-04-24T02:57:46;0.85;;;0.25;;
36205;SDS011;22242;48.796;9.930;2023-04-24T03:00:13;1.40;;;0.20;;
36205;SDS011;22242;48.796;9.930;2023-04-24T03:02:41;1.95;;;0.40;;
36205;SDS011;22242;48.796;9.930;2023-04-24T03:05:08;1.58;;;0.30;;
36205;SDS011;22242;48.796;9.930;2023-04-24T03:07:38;1.20;;;0.40;;
36205;SDS011;22242;48.796;9.930;2023-04-24T03:10:06;1.33;;;0.40;;
36205;SDS011;22242;48.796;9.930;2023-04-24T03:12:34;1.27;;;0.40;;
36205;SDS011;22242;48.796;9.930;2023-04-24T03:15:01;2.70;;;0.73;;
36205;SDS011;22242;48.796;9.930;2023-04-24T03:17:28;0.70;;;0.40;;
36205;SDS011;22242;48.796;9.930;2023-04-24T03:19:55;0.60;;;0.50;;
36205;SDS011;22242;48.796;9.930;2023-04-24T03:22:22;0.80;;;0.50;;
36205;SDS011;22242;48.796;9.930;2023-04-24T03:24:51;1.45;;;0.65;;
36205;SDS011;22242;48.796;9.930;2023-04-24T03:27:18;1.00;;;0.50;;
36205;SDS011;22242;48.796;9.930;2023-04-24T03:30:12;1.17;;;0.40;;
36205;SDS011;22242;48.796;9.930;2023-04-24T03:32:47;3.72;;;0.40;;
36205;SDS011;22242;48.796;9.930;2023-04-24T03:35:19;2.10;;;0.60;;
36205;SDS011;22242;48.796;9.930;2023-04-24T03:37:47;0.93;;;0.45;;
36205;SDS011;22242;48.796;9.930;2023-04-24T03:40:45;0.40;;;0.38;;
36205;SDS011;22242;48.796;9.930;2023-04-24T03:43:39;3.00;;;0.40;;
36205;SDS011;22242;48.796;9.930;2023-04-24T03:46:06;5.50;;;0.57;;
36205;SDS011;22242;48.796;9.930;2023-04-24T03:48:38;1.63;;;0.43;;
36205;SDS011;22242;48.796;9.930;2023-04-24T03:51:07;2.75;;;0.60;;
36205;SDS011;22242;48.796;9.930;2023-04-24T03:53:36;1.95;;;0.55;;
36205;SDS011;22242;48.796;9.930;2023-04-24T03:56:05;2.70;;;0.55;;
36205;SDS011;22242;48.796;9.930;2023-04-24T03:58:32;1.50;;;0.40;;
36205;SDS011;22242;48.796;9.930;2023-04-24T04:01:00;1.85;;;0.52;;
36205;SDS011;22242;48.796;9.930;2023-04-24T04:03:42;0.25;;;0.25;;
36205;SDS011;22242;48.796;9.930;2023-04-24T04:06:09;0.90;;;0.30;;
36205;SDS011;22242;48.796;9.930;2023-04-24T04:08:38;1.83;;;0.30;;
36205;SDS011;22242;48.796;9.930;2023-04-24T04:11:06;0.93;;;0.43;;
36205;SDS011;22242;48.796;9.930;2023-04-24T04:13:34;1.40;;;0.40;;
36205;SDS011;22242;48.796;9.930;2023-04-24T04:16:01;2.35;;;0.40;;
36205;SDS011;22242;48.796;9.930;2023-04-24T04:18:28;0.70;;;0.30;;
36205;SDS011;22242;48.796;9.930;2023-04-24T04:20:55;2.45;;;0.60;;
36205;SDS011;22242;48.796;9.930;2023-04-24T04:23:22;2.50;;;0.50;;
36205;SDS011;22242;48.796;9.930;2023-04-24T04:26:04;1.08;;;0.52;;
36205;SDS011;22242;48.796;9.930;2023-04-24T04:28:48;0.98;;;0.40;;
36205;SDS011;22242;48.796;9.930;2023-04-24T04:31:15;2.22;;;0.60;;
36205;SDS011;22242;48.796;9.930;2023-04-24T04:33:42;0.95;;;0.68;;
36205;SDS011;22242;48.796;9.930;2023-04-24T04:36:10;1.35;;;0.40;;
36205;SDS011;22242;48.796;9.930;2023-04-24T04:38:42;2.15;;;0.50;;
36205;SDS011;22242;48.796;9.930;2023-04-24T04:41:30;1.73;;;0.60;;
36205;SDS011;22242;48.796;9.930;2023-04-24T04:43:58;1.83;;;0.50;;
36205;SDS011;22242;48.796;9.930;2023-04-24T04:46:26;0.95;;;0.50;;
36205;SDS011;22242;48.796;9.930;2023-04-24T04:49:02;0.88;;;0.20;;
36205;SDS011;22242;48.796;9.930;2023-04-24T04:51:29;1.98;;;0.40;;
36205;SDS011;22242;48.796;9.930;2023-04-24T04:53:57;3.30;;;0.57;;
36205;SDS011;22242;48.796;9.930;2023-04-24T04:56:24;1.58;;;0.50;;
36205;SDS011;22242;48.796;9.930;2023-04-24T04:58:51;0.75;;;0.38;;
36205;SDS011;22242;48.796;9.930;2023-04-24T05:01:20;0.68;;;0.40;;
36205;SDS011;22242;48.796;9.930;2023-04-24T05:03:49;1.67;;;0.30;;
36205;SDS011;22242;48.796;9.930;2023-04-24T05:06:16;1.42;;;0.30;;
36205;SDS011;22242;48.796;9.930;2023-04-24T05:08:44;1.42;;;1.20;;
36205;SDS011;22242;48.796;9.930;2023-04-24T05:11:24;1.30;;;0.40;;
36205;SDS011;22242;48.796;9.930;2023-04-24T05:13:53;0.70;;;0.40;;
36205;SDS011;22242;48.796;9.930;2023-04-24T05:16:29;2.25;;;0.40;;
36205;SDS011;22242;48.796;9.930;2023-04-24T05:18:56;1.45;;;0.40;;
36205;SDS011;22242;48.796;9.930;2023-04-24T05:21:29;1.70;;;0.30;;
36205;SDS011;22242;48.796;9.930;2023-04-24T05:23:56;1.48;;;0.47;;
36205;SDS011;22242;48.796;9.930;2023-04-24T05:26:39;2.38;;;0.30;;
36205;SDS011;22242;48.796;9.930;2023-04-24T05:29:07;1.63;;;0.70;;
36205;SDS011;22242;48.796;9.930;2023-04-24T05:31:36;2.55;;;0.88;;
36205;SDS011;22242;48.796;9.930;2023-04-24T05:34:03;0.98;;;0.80;;
36205;SDS011;22242;48.796;9.930;2023-04-24T05:36:31;1.92;;;0.80;;
36205;SDS011;22242;48.796;9.930;2023-04-24T05:38:58;1.92;;;1.20;;
36205;SDS011;22242;48.796;9.930;2023-04-24T05:41:25;2.15;;;1.20;;
36205;SDS011;22242;48.796;9.930;2023-04-24T05:43:52;2.75;;;1.17;;
36205;SDS011;22242;48.796;9.930;2023-04-24T05:46:20;2.60;;;1.27;;
36205;SDS011;22242;48.796;9.930;2023-04-24T05:48:48;1.67;;;1.00;;
36205;SDS011;22242;48.796;9.930;2023-04-24T05:51:15;1.23;;;1.10;;
36205;SDS011;22242;48.796;9.930;2023-04-24T05:53:42;1.30;;;1.08;;
36205;SDS011;22242;48.796;9.930;2023-04-24T05:56:13;1.67;;;0.80;;
36205;SDS011;22242;48.796;9.930;2023-04-24T05:58:41;0.85;;;0.85;;
36205;SDS011;22242;48.796;9.930;2023-04-24T06:01:08;1.67;;;1.05;;
36205;SDS011;22242;48.796;9.930;2023-04-24T06:03:36;0.85;;;0.80;;
36205;SDS011;22242;48.796;9.930;2023-04-24T06:06:06;2.47;;;1.35;;
36205;SDS011;22242;48.796;9.930;2023-04-24T06:08:35;1.75;;;1.10;;
36205;SDS011;22242;48.796;9.930;2023-04-24T06:11:02;2.17;;;1.15;;
36205;SDS011;22242;48.796;9.930;2023-04-24T06:13:29;3.10;;;1.13;;
36205;SDS011;22242;48.796;9.930;2023-04-24T06:16:19;2.22;;;1.00;;
36205;SDS011;22242;48.796;9.930;2023-04-24T06:18:53;1.00;;;0.80;;
36205;SDS011;22242;48.796;9.930;2023-04-24T06:21:21;1.55;;;1.10;;
36205;SDS011;22242;48.796;9.930;2023-04-24T06:23:49;1.52;;;0.90;;
36205;SDS011;22242;48.796;9.930;2023-04-24T06:26:16;1.58;;;1.13;;
36205;SDS011;22242;48.796;9.930;2023-04-24T06:28:43;1.60;;;1.33;;
36205;SDS011;22242;48.796;9.930;2023-04-24T06:31:10;1.73;;;1.13;;
36205;SDS011;22242;48.796;9.930;2023-04-24T06:33:37;3.67;;;1.35;;
36205;SDS011;22242;48.796;9.930;2023-04-24T06:36:05;1.20;;;1.10;;
36205;SDS011;22242;48.796;9.930;2023-04-24T06:38:33;1.67;;;1.25;;
36205;SDS011;22242;48.796;9.930;2023-04-24T06:41:01;2.65;;;1.20;;
36205;SDS011;22242;48.796;9.930;2023-04-24T06:43:28;2.15;;;1.13;;
36205;SDS011;22242;48.796;9.930;2023-04-24T06:45:55;1.50;;;0.98;;
36205;SDS011;22242;48.796;9.930;2023-04-24T06:48:23;2.35;;;1.00;;
36205;SDS011;22242;48.796;9.930;2023-04-24T06:50:51;2.78;;;0.90;;
36205;SDS011;22242;48.796;9.930;2023-04-24T06:53:18;1.00;;;0.70;;
36205;SDS011;22242;48.796;9.930;2023-04-24T06:55:46;2.20;;;1.02;;
36205;SDS011;22242;48.796;9.930;2023-04-24T06:58:13;2.65;;;1.15;;
36205;SDS011;22242;48.796;9.930;2023-04-24T07:00:41;2.13;;;0.98;;
36205;SDS011;22242;48.796;9.930;2023-04-24T07:03:08;0.98;;;0.95;;
36205;SDS011;22242;48.796;9.930;2023-04-24T07:05:35;1.00;;;0.90;;
36205;SDS011;22242;48.796;9.930;2023-04-24T07:08:03;2.10;;;0.90;;
36205;SDS011;22242;48.796;9.930;2023-04-24T07:10:32;1.50;;;1.00;;
36205;SDS011;22242;48.796;9.930;2023-04-24T07:13:00;4.72;;;1.25;;
36205;SDS011;22242;48.796;9.930;2023-04-24T07:15:27;2.35;;;1.00;;
36205;SDS011;22242;48.796;9.930;2023-04-24T07:17:54;1.85;;;0.85;;
36205;SDS011;22242;48.796;9.930;2023-04-24T07:20:21;1.02;;;0.80;;
36205;SDS011;22242;48.796;9.930;2023-04-24T07:22:48;1.40;;;0.90;;
36205;SDS011;22242;48.796;9.930;2023-04-24T07:25:17;1.85;;;0.90;;
36205;SDS011;22242;48.796;9.930;2023-04-24T07:27:44;1.80;;;0.85;;
36205;SDS011;22242;48.796;9.930;2023-04-24T07:30:13;0.73;;;0.70;;
36205;SDS011;22242;48.796;9.930;2023-04-24T07:32:40;2.38;;;1.10;;
36205;SDS011;22242;48.796;9.930;2023-04-24T07:35:07;3.63;;;1.00;;
36205;SDS011;22242;48.796;9.930;2023-04-24T07:37:35;0.70;;;0.70;;
36205;SDS011;22242;48.796;9.930;2023-04-24T07:40:02;1.10;;;1.00;;
36205;SDS011;22242;48.796;9.930;2023-04-24T07:42:30;2.40;;;1.08;;
36205;SDS011;22242;48.796;9.930;2023-04-24T07:44:59;0.88;;;0.80;;
36205;SDS011;22242;48.796;9.930;2023-04-24T07:47:28;1.13;;;1.00;;
36205;SDS011;22242;48.796;9.930;2023-04-24T07:49:55;1.20;;;0.90;;
36205;SDS011;22242;48.796;9.930;2023-04-24T07:52:22;1.10;;;1.00;;
36205;SDS011;22242;48.796;9.930;2023-04-24T07:54:49;2.20;;;1.10;;
36205;SDS011;22242;48.796;9.930;2023-04-24T07:57:18;2.53;;;1.10;;
36205;SDS011;22242;48.796;9.930;2023-04-24T07:59:45;2.30;;;1.13;;
36205;SDS011;22242;48.796;9.930;2023-04-24T08:02:12;1.88;;;1.20;;
36205;SDS011;22242;48.796;9.930;2023-04-24T08:04:41;1.63;;;1.52;;
36205;SDS011;22242;48.796;9.930;2023-04-24T08:07:08;1.58;;;1.40;;
36205;SDS011;22242;48.796;9.930;2023-04-24T08:09:35;2.50;;;1.30;;
36205;SDS011;22242;48.796;9.930;2023-04-24T08:12:02;1.80;;;1.35;;
36205;SDS011;22242;48.796;9.930;2023-04-24T08:14:29;1.30;;;1.20;;
36205;SDS011;22242;48.796;9.930;2023-04-24T08:16:56;3.15;;;1.25;;
36205;SDS011;22242;48.796;9.930;2023-04-24T08:19:25;1.65;;;1.20;;
36205;SDS011;22242;48.796;9.930;2023-04-24T08:21:53;4.47;;;1.33;;
36205;SDS011;22242;48.796;9.930;2023-04-24T08:24:20;3.85;;;1.23;;
36205;SDS011;22242;48.796;9.930;2023-04-24T08:26:48;1.60;;;1.33;;
36205;SDS011;22242;48.796;9.930;2023-04-24T08:29:16;2.13;;;1.38;;
36205;SDS011;22242;48.796;9.930;2023-04-24T08:31:43;1.33;;;1.23;;
36205;SDS011;22242;48.796;9.930;2023-04-24T08:34:10;1.20;;;1.10;;
36205;SDS011;22242;48.796;9.930;2023-04-24T08:36:37;1.75;;;0.82;;
36205;SDS011;22242;48.796;9.930;2023-04-24T08:39:07;1.50;;;1.13;;
36205;SDS011;22242;48.796;9.930;2023-04-24T08:41:34;1.25;;;1.15;;
36205;SDS011;22242;48.796;9.930;2023-04-24T08:44:03;1.33;;;1.00;;
36205;SDS011;22242;48.796;9.930;2023-04-24T08:46:30;2.03;;;1.23;;
36205;SDS011;22242;48.796;9.930;2023-04-24T08:48:58;1.05;;;0.70;;
36205;SDS011;22242;48.796;9.930;2023-04-24T08:51:26;0.93;;;0.80;;
36205;SDS011;22242;48.796;9.930;2023-04-24T08:53:56;0.75;;;0.75;;
36205;SDS011;22242;48.796;9.930;2023-04-24T08:56:25;0.82;;;0.73;;
36205;SDS011;22242;48.796;9.930;2023-04-24T08:58:55;1.13;;;0.57;;
36205;SDS011;22242;48.796;9.930;2023-04-24T09:01:22;0.90;;;0.77;;
36205;SDS011;22242;48.796;9.930;2023-04-24T09:03:54;0.73;;;0.73;;
36205;SDS011;22242;48.796;9.930;2023-04-24T09:06:23;1.13;;;1.00;;
36205;SDS011;22242;48.796;9.930;2023-04-24T09:08:52;1.17;;;0.73;;
36205;SDS011;22242;48.796;9.930;2023-04-24T09:11:21;0.95;;;0.70;;
36205;SDS011;22242;48.796;9.930;2023-04-24T09:13:52;0.77;;;0.77;;
36205;SDS011;22242;48.796;9.930;2023-04-24T09:16:20;1.73;;;1.10;;
36205;SDS011;22242;48.796;9.930;2023-04-24T09:18:48;2.95;;;0.90;;
36205;SDS011;22242;48.796;9.930;2023-04-24T09:21:15;2.63;;;0.90;;
36205;SDS011;22242;48.796;9.930;2023-04-24T09:23:42;1.08;;;0.80;;
36205;SDS011;22242;48.796;9.930;2023-04-24T09:26:10;1.13;;;0.80;;
36205;SDS011;22242;48.796;9.930;2023-04-24T09:28:40;1.48;;;1.10;;
36205;SDS011;22242;48.796;9.930;2023-04-24T09:31:09;1.05;;;0.95;;
36205;SDS011;22242;48.796;9.930;2023-04-24T09:33:39;1.40;;;1.30;;
36205;SDS011;22242;48.796;9.930;2023-04-24T09:36:06;1.25;;;0.90;;
36205;SDS011;22242;48.796;9.930;2023-04-24T09:38:34;1.88;;;0.90;;
36205;SDS011;22242;48.796;9.930;2023-04-24T09:41:03;1.42;;;0.95;;
36205;SDS011;22242;48.796;9.930;2023-04-24T09:43:31;1.58;;;0.70;;
36205;SDS011;22242;48.796;9.930;2023-04-24T09:46:03;1.27;;;1.00;;
36205;SDS011;22242;48.796;9.930;2023-04-24T09:48:33;1.92;;;1.50;;
36205;SDS011;22242;48.796;9.930;2023-04-24T09:51:02;3.05;;;1.13;;
36205;SDS011;22242;48.796;9.930;2023-04-24T09:53:32;2.38;;;0.77;;
36205;SDS011;22242;48.796;9.930;2023-04-24T09:56:02;2.67;;;1.80;;
36205;SDS011;22242;48.796;9.930;2023-04-24T09:58:34;6.90;;;4.53;;
36205;SDS011;22242;48.796;9.930;2023-04-24T10:01:01;2.97;;;2.00;;
36205;SDS011;22242;48.796;9.930;2023-04-24T10:03:29;5.40;;;1.67;;
36205;SDS011;22242;48.796;9.930;2023-04-24T10:05:59;1.60;;;1.50;;
36205;SDS011;22242;48.796;9.930;2023-04-24T10:08:27;7.47;;;3.70;;
36205;SDS011;22242;48.796;9.930;2023-04-24T10:11:00;4.30;;;1.95;;
36205;SDS011;22242;48.796;9.930;2023-04-24T10:13:28;2.28;;;1.35;;
36205;SDS011;22242;48.796;9.930;2023-04-24T10:15:56;3.28;;;1.50;;
36205;SDS011;22242;48.796;9.930;2023-04-24T10:18:25;1.60;;;1.13;;
36205;SDS011;22242;48.796;9.930;2023-04-24T10:20:53;1.63;;;1.33;;
36205;SDS011;22242;48.796;9.930;2023-04-24T10:23:22;3.05;;;1.30;;
36205;SDS011;22242;48.796;9.930;2023-04-24T10:25:51;1.80;;;1.30;;
36205;SDS011;22242;48.796;9.930;2023-04-24T10:28:20;3.58;;;1.33;;
36205;SDS011;22242;48.796;9.930;2023-04-24T10:30:48;3.30;;;1.00;;
36205;SDS011;22242;48.796;9.930;2023-04-24T10:33:20;4.28;;;1.95;;
36205;SDS011;22242;48.796;9.930;2023-04-24T10:35:48;5.50;;;1.80;;
36205;SDS011;22242;48.796;9.930;2023-04-24T10:38:18;11.32;;;3.47;;
36205;SDS011;22242;48.796;9.930;2023-04-24T10:40:52;5.78;;;2.83;;
36205;SDS011;22242;48.796;9.930;2023-04-24T10:43:24;7.00;;;3.05;;
36205;SDS011;22242;48.796;9.930;2023-04-24T10:46:01;3.08;;;1.20;;
36205;SDS011;22242;48.796;9.930;2023-04-24T10:48:29;5.20;;;2.67;;
36205;SDS011;22242;48.796;9.930;2023-04-24T10:50:56;1.63;;;1.52;;
36205;SDS011;22242;48.796;9.930;2023-04-24T10:53:28;4.93;;;2.53;;
36205;SDS011;22242;48.796;9.930;2023-04-24T10:56:02;1.27;;;1.13;;
36205;SDS011;22242;48.796;9.930;2023-04-24T10:58:37;3.83;;;1.40;;
36205;SDS011;22242;48.796;9.930;2023-04-24T11:01:06;9.65;;;6.78;;
36205;SDS011;22242;48.796;9.930;2023-04-24T11:03:34;4.28;;;3.75;;
36205;SDS011;22242;48.796;9.930;2023-04-24T11:06:02;3.25;;;2.33;;
36205;SDS011;22242;48.796;9.930;2023-04-24T11:08:32;3.10;;;2.55;;
36205;SDS011;22242;48.796;9.930;2023-04-24T11:16:34;2.10;;;1.90;;
36205;SDS011;22242;48.796;9.930;2023-04-24T11:19:05;3.67;;;1.35;;
36205;SDS011;22242;48.796;9.930;2023-04-24T11:21:42;1.52;;;0.90;;
36205;SDS011;22242;48.796;9.930;2023-04-24T11:24:25;2.40;;;1.63;;
36205;SDS011;22242;48.796;9.930;2023-04-24T11:26:57;6.63;;;4.90;;
36205;SDS011;22242;48.796;9.930;2023-04-24T11:29:43;4.07;;;1.65;;
36205;SDS011;22242;48.796;9.930;2023-04-24T11:32:14;3.75;;;1.95;;
36205;SDS011;22242;48.796;9.930;2023-04-24T11:34:45;5.00;;;2.88;;
36205;SDS011;22242;48.796;9.930;2023-04-24T11:37:12;3.10;;;2.13;;
36205;SDS011;22242;48.796;9.930;2023-04-24T11:39:41;2.10;;;1.67;;
36205;SDS011;22242;48.796;9.930;2023-04-24T11:42:08;1.13;;;0.93;;
36205;SDS011;22242;48.796;9.930;2023-04-24T11:44:36;2.13;;;0.80;;
36205;SDS011;22242;48.796;9.930;2023-04-24T11:47:04;1.00;;;0.90;;
36205;SDS011;22242;48.796;9.930;2023-04-24T11:49:32;4.05;;;1.20;;
36205;SDS011;22242;48.796;9.930;2023-04-24T11:51:59;1.23;;;1.00;;
36205;SDS011;22242;48.796;9.930;2023-04-24T11:54:26;2.10;;;1.10;;
36205;SDS011;22242;48.796;9.930;2023-04-24T11:56:55;0.70;;;0.70;;
36205;SDS011;22242;48.796;9.930;2023-04-24T11:59:23;2.28;;;0.85;;
36205;SDS011;22242;48.796;9.930;2023-04-24T12:01:50;0.88;;;0.88;;
36205;SDS011;22242;48.796;9.930;2023-04-24T12:04:17;1.40;;;1.23;;
36205;SDS011;22242;48.796;9.930;2023-04-24T12:06:59;1.10;;;1.00;;
36205;SDS011;22242;48.796;9.930;2023-04-24T12:09:26;0.98;;;0.90;;
36205;SDS011;22242;48.796;9.930;2023-04-24T12:11:55;2.85;;;0.90;;
36205;SDS011;22242;48.796;9.930;2023-04-24T12:14:23;1.00;;;0.90;;
36205;SDS011;22242;48.796;9.930;2023-04-24T12:16:50;0.88;;;0.88;;
36205;SDS011;22242;48.796;9.930;2023-04-24T12:19:18;1.42;;;0.90;;
36205;SDS011;22242;48.796;9.930;2023-04-24T12:21:58;3.15;;;1.20;;
36205;SDS011;22242;48.796;9.930;2023-04-24T12:24:26;1.67;;;1.55;;
36205;SDS011;22242;48.796;9.930;2023-04-24T12:26:54;2.92;;;1.15;;
36205;SDS011;22242;48.796;9.930;2023-04-24T12:29:21;1.50;;;1.25;;
36205;SDS011;22242;48.796;9.930;2023-04-24T12:31:49;1.33;;;1.00;;
36205;SDS011;22242;48.796;9.930;2023-04-24T12:34:17;2.03;;;0.70;;
36205;SDS011;22242;48.796;9.930;2023-04-24T12:36:45;1.05;;;0.63;;
36205;SDS011;22242;48.796;9.930;2023-04-24T12:39:15;0.82;;;0.80;;
36205;SDS011;22242;48.796;9.930;2023-04-24T12:41:50;3.42;;;1.00;;
36205;SDS011;22242;48.796;9.930;2023-04-24T12:44:29;1.13;;;0.80;;
36205;SDS011;22242;48.796;9.930;2023-04-24T12:46:59;1.38;;;0.80;;
36205;SDS011;22242;48.796;9.930;2023-04-24T12:49:26;1.67;;;1.20;;
36205;SDS011;22242;48.796;9.930;2023-04-24T12:51:54;1.77;;;1.10;;
36205;SDS011;22242;48.796;9.930;2023-04-24T12:54:21;1.10;;;0.98;;
36205;SDS011;22242;48.796;9.930;2023-04-24T12:56:48;4.15;;;1.80;;
36205;SDS011;22242;48.796;9.930;2023-04-24T12:59:16;3.33;;;0.75;;
36205;SDS011;22242;48.796;9.930;2023-04-24T13:01:43;2.03;;;1.55;;
36205;SDS011;22242;48.796;9.930;2023-04-24T13:04:11;2.00;;;0.90;;
36205;SDS011;22242;48.796;9.930;2023-04-24T13:06:38;3.03;;;1.00;;
36205;SDS011;22242;48.796;9.930;2023-04-24T13:09:05;1.30;;;1.00;;
36205;SDS011;22242;48.796;9.930;2023-04-24T13:11:32;1.00;;;0.90;;
36205;SDS011;22242;48.796;9.930;2023-04-24T13:13:59;3.33;;;1.10;;
36205;SDS011;22242;48.796;9.930;2023-04-24T13:16:28;1.00;;;1.00;;
36205;SDS011;22242;48.796;9.930;2023-04-24T13:18:55;1.60;;;1.05;;
36205;SDS011;22242;48.796;9.930;2023-04-24T13:21:22;1.10;;;1.00;;
36205;SDS011;22242;48.796;9.930;2023-04-24T13:23:49;1.85;;;1.02;;
36205;SDS011;22242;48.796;9.930;2023-04-24T13:26:17;1.48;;;1.02;;
36205;SDS011;22242;48.796;9.930;2023-04-24T13:28:44;1.55;;;1.00;;
36205;SDS011;22242;48.796;9.930;2023-04-24T13:31:11;1.10;;;1.00;;
36205;SDS011;22242;48.796;9.930;2023-04-24T13:33:40;2.22;;;0.80;;
36205;SDS011;22242;48.796;9.930;2023-04-24T13:36:07;1.50;;;0.80;;
36205;SDS011;22242;48.796;9.930;2023-04-24T13:38:34;1.90;;;1.10;;
36205;SDS011;22242;48.796;9.930;2023-04-24T13:41:01;1.52;;;0.90;;
36205;SDS011;22242;48.796;9.930;2023-04-24T13:43:28;1.77;;;0.93;;
36205;SDS011;22242;48.796;9.930;2023-04-24T13:45:55;2.42;;;1.27;;
36205;SDS011;22242;48.796;9.930;2023-04-24T13:48:24;0.95;;;0.90;;
36205;SDS011;22242;48.796;9.930;2023-04-24T13:50:52;1.08;;;0.88;;
36205;SDS011;22242;48.796;9.930;2023-04-24T13:53:20;0.80;;;0.80;;
36205;SDS011;22242;48.796;9.930;2023-04-24T13:55:47;2.20;;;1.10;;
36205;SDS011;22242;48.796;9.930;2023-04-24T13:58:15;1.92;;;1.52;;
36205;SDS011;22242;48.796;9.930;2023-04-24T14:00:41;1.92;;;1.60;;
36205;SDS011;22242;48.796;9.930;2023-04-24T14:03:09;1.85;;;1.40;;
36205;SDS011;22242;48.796;9.930;2023-04-24T14:05:36;1.25;;;1.00;;
36205;SDS011;22242;48.796;9.930;2023-04-24T14:08:05;2.47;;;0.90;;
36205;SDS011;22242;48.796;9.930;2023-04-24T14:10:32;0.95;;;0.90;;
36205;SDS011;22242;48.796;9.930;2023-04-24T14:12:59;1.70;;;1.13;;
36205;SDS011;22242;48.796;9.930;2023-04-24T14:15:26;1.20;;;1.10;;
36205;SDS011;22242;48.796;9.930;2023-04-24T14:17:54;3.78;;;1.30;;
36205;SDS011;22242;48.796;9.930;2023-04-24T14:20:21;1.85;;;1.70;;
36205;SDS011;22242;48.796;9.930;2023-04-24T14:22:48;2.85;;;1.50;;
36205;SDS011;22242;48.796;9.930;2023-04-24T14:25:17;1.98;;;1.50;;
36205;SDS011;22242;48.796;9.930;2023-04-24T14:27:44;1.80;;;1.45;;
36205;SDS011;22242;48.796;9.930;2023-04-24T14:30:12;2.50;;;1.52;;
36205;SDS011;22242;48.796;9.930;2023-04-24T14:32:40;2.60;;;1.58;;
36205;SDS011;22242;48.796;9.930;2023-04-24T14:35:07;2.08;;;1.20;;
36205;SDS011;22242;48.796;9.930;2023-04-24T14:37:35;1.60;;;1.50;;
36205;SDS011;22242;48.796;9.930;2023-04-24T14:40:03;3.50;;;1.85;;
36205;SDS011;22242;48.796;9.930;2023-04-24T14:42:32;2.55;;;1.67;;
36205;SDS011;22242;48.796;9.930;2023-04-24T14:45:00;2.15;;;1.23;;
36205;SDS011;22242;48.796;9.930;2023-04-24T14:47:27;3.22;;;1.40;;
36205;SDS011;22242;48.796;9.930;2023-04-24T14:49:55;2.83;;;2.42;;
36205;SDS011;22242;48.796;9.930;2023-04-24T14:52:21;1.60;;;1.50;;
36205;SDS011;22242;48.796;9.930;2023-04-24T14:54:49;2.00;;;1.50;;
36205;SDS011;22242;48.796;9.930;2023-04-24T14:57:16;1.95;;;1.85;;
36205;SDS011;22242;48.796;9.930;2023-04-24T14:59:44;2.10;;;1.48;;
36205;SDS011;22242;48.796;9.930;2023-04-24T15:02:12;1.83;;;1.67;;